Time;durP1;ratioP1;P1;durP2;ratioP2;P2;SDS_P1;SDS_P2;PMS_P1;PMS_P2;Temp;Humidity;BMP_temperature;BMP_pressure;BME280_temperature;BME280_humidity;BME280_pressure;Samples;Min_cycle;Max_cycle;Signal;HPM_P1;HPM_P2
2022/11/04 00:00:08;;;;;;;12.70;10.93;;;22.40;99.90;;;;;;6225035;28;87229;-67
2022/11/04 00:03:12;;;;;;;12.38;11.07;;;22.40;99.90;;;;;;6231040;28;89166;-67
2022/11/04 00:06:14;;;;;;;12.25;10.95;;;22.40;99.90;;;;;;6220484;28;89178;-67
2022/11/04 00:09:18;;;;;;;12.02;10.77;;;22.40;99.90;;;;;;6215387;28;89164;-67
2022/11/04 00:12:25;;;;;;;12.50;11.15;;;22.40;99.90;;;;;;6231679;28;88991;-67
2022/11/04 00:18:48;;;;;;;12.25;11.02;;;22.40;99.90;;;;;;6232030;28;86656;-65
2022/11/04 00:28:45;;;;;;;12.50;11.00;;;22.40;99.90;;;;;;6230847;28;88274;-64
2022/11/04 00:35:08;;;;;;;12.60;11.30;;;22.40;99.90;;;;;;6193268;28;88632;-64
2022/11/04 00:38:10;;;;;;;12.98;11.57;;;22.30;99.90;;;;;;6219746;28;89581;-64
2022/11/04 00:41:25;;;;;;;12.75;11.45;;;22.40;99.90;;;;;;6217991;28;89271;-65
2022/11/04 00:44:27;;;;;;;13.55;12.15;;;22.40;99.90;;;;;;6224087;28;89251;-65
2022/11/04 00:47:29;;;;;;;13.13;11.77;;;22.40;99.90;;;;;;6210285;28;89305;-65
2022/11/04 00:50:33;;;;;;;14.05;12.27;;;22.30;99.90;;;;;;6218677;28;88711;-65
2022/11/04 00:53:35;;;;;;;13.73;12.25;;;22.30;99.90;;;;;;6206077;28;89036;-65
2022/11/04 00:56:38;;;;;;;13.85;12.27;;;22.30;99.90;;;;;;6221342;28;89050;-65
2022/11/04 00:59:40;;;;;;;14.25;12.13;;;22.30;99.90;;;;;;6216814;28;89045;-65
2022/11/04 01:02:42;;;;;;;14.32;12.65;;;22.30;99.90;;;;;;6226224;28;89088;-64
2022/11/04 01:05:46;;;;;;;14.07;12.57;;;22.30;99.90;;;;;;6230138;28;89167;-64
2022/11/04 01:08:48;;;;;;;13.50;12.10;;;22.30;99.90;;;;;;6211896;28;89656;-65
2022/11/04 01:11:51;;;;;;;14.23;12.73;;;22.30;99.90;;;;;;6205317;28;88934;-64
2022/11/04 01:14:53;;;;;;;13.07;11.68;;;22.30;99.90;;;;;;6208362;28;89280;-64
2022/11/04 01:17:55;;;;;;;13.10;11.75;;;22.30;99.90;;;;;;6217962;28;89534;-64
2022/11/04 01:21:03;;;;;;;13.45;11.73;;;22.30;99.90;;;;;;6230978;28;88687;-65
2022/11/04 01:24:06;;;;;;;13.75;12.27;;;22.30;99.90;;;;;;6228512;28;89220;-65
2022/11/04 01:27:08;;;;;;;14.27;12.25;;;22.30;99.90;;;;;;6229549;28;88136;-65
2022/11/04 01:30:11;;;;;;;13.43;12.02;;;22.30;99.90;;;;;;6211691;28;90257;-64
2022/11/04 01:33:13;;;;;;;13.40;12.05;;;22.20;99.90;;;;;;6221673;28;89453;-65
2022/11/04 01:36:17;;;;;;;14.02;12.50;;;22.20;99.90;;;;;;6216117;28;89232;-64
2022/11/04 01:39:19;;;;;;;14.35;12.85;;;22.20;99.90;;;;;;6216980;28;89169;-65
2022/11/04 01:42:21;;;;;;;13.70;12.30;;;22.20;99.90;;;;;;6224227;28;89610;-65
2022/11/04 01:45:23;;;;;;;13.20;11.90;;;22.20;99.90;;;;;;6228175;28;87969;-64
2022/11/04 01:48:29;;;;;;;13.18;11.82;;;22.20;99.90;;;;;;6227043;28;87993;-65
2022/11/04 01:51:35;;;;;;;14.43;12.93;;;22.20;99.90;;;;;;6218356;28;88269;-65
2022/11/04 01:54:39;;;;;;;13.52;12.18;;;22.20;99.90;;;;;;6206401;28;89115;-65
2022/11/04 01:57:46;;;;;;;13.70;12.30;;;22.20;99.90;;;;;;6212961;28;89996;-65
2022/11/04 02:00:49;;;;;;;14.00;12.52;;;22.20;99.90;;;;;;6213150;28;90159;-64
2022/11/04 02:03:54;;;;;;;12.88;11.57;;;22.30;99.90;;;;;;6232626;28;89137;-64
2022/11/04 02:07:00;;;;;;;13.80;12.30;;;22.20;99.90;;;;;;6225855;28;89027;-64
2022/11/04 02:10:02;;;;;;;13.65;11.88;;;22.20;99.90;;;;;;6217695;28;89150;-65
2022/11/04 02:13:04;;;;;;;14.43;12.80;;;22.20;99.90;;;;;;6204128;28;89377;-65
2022/11/04 02:16:12;;;;;;;13.57;12.10;;;22.20;99.90;;;;;;6217509;28;87990;-65
2022/11/04 02:19:36;;;;;;;12.40;11.15;;;22.20;99.90;;;;;;6226250;28;89116;-65
2022/11/04 02:23:05;;;;;;;12.85;11.55;;;22.10;99.90;;;;;;6216326;28;88646;-64
2022/11/04 02:26:46;;;;;;;13.32;11.95;;;22.20;99.90;;;;;;6216648;28;88007;-65
2022/11/04 02:30:07;;;;;;;13.05;11.65;;;22.20;99.90;;;;;;6217726;28;89147;-64
2022/11/04 02:33:21;;;;;;;12.85;11.57;;;22.20;99.90;;;;;;6216016;28;90182;-65
2022/11/04 02:36:32;;;;;;;12.68;11.38;;;22.10;99.90;;;;;;6208940;28;88315;-64
2022/11/04 02:39:41;;;;;;;12.45;11.15;;;22.20;99.90;;;;;;6224984;28;87741;-65
2022/11/04 02:42:52;;;;;;;12.40;11.10;;;22.20;99.90;;;;;;6216686;28;89476;-64
2022/11/04 02:46:03;;;;;;;11.88;10.70;;;22.10;99.90;;;;;;6220010;28;89251;-64
2022/11/04 02:49:10;;;;;;;11.80;10.63;;;22.10;99.90;;;;;;6221757;28;89265;-65
2022/11/04 02:52:16;;;;;;;11.73;10.52;;;22.10;99.90;;;;;;6221614;28;89179;-65
2022/11/04 02:55:23;;;;;;;11.82;10.63;;;22.10;99.90;;;;;;6226236;28;88262;-64
2022/11/04 02:58:30;;;;;;;12.27;10.98;;;22.10;99.90;;;;;;6221252;28;89143;-65
2022/11/04 03:01:36;;;;;;;11.50;10.30;;;22.10;99.90;;;;;;6210130;28;89016;-64
2022/11/04 03:04:43;;;;;;;11.20;10.10;;;22.10;99.90;;;;;;6232456;28;90177;-65
2022/11/04 03:07:48;;;;;;;11.05;9.95;;;22.10;99.90;;;;;;6232779;28;89068;-65
2022/11/04 03:10:53;;;;;;;11.02;9.93;;;22.10;99.90;;;;;;6224571;28;89216;-65
2022/11/04 03:13:59;;;;;;;11.00;9.90;;;22.10;99.90;;;;;;6228312;28;89291;-65
2022/11/04 03:17:06;;;;;;;10.68;9.68;;;22.10;99.90;;;;;;6216662;28;89154;-65
2022/11/04 03:20:13;;;;;;;10.93;9.82;;;22.10;99.90;;;;;;6223087;28;89167;-65
2022/11/04 03:23:16;;;;;;;10.65;9.60;;;22.10;99.90;;;;;;6219578;28;89154;-65
2022/11/04 03:26:25;;;;;;;10.73;9.63;;;22.10;99.90;;;;;;6211887;28;87275;-66
2022/11/04 03:29:32;;;;;;;10.95;9.85;;;22.10;99.90;;;;;;6227332;28;89058;-65
2022/11/04 03:32:42;;;;;;;10.63;9.63;;;22.10;99.90;;;;;;6228363;28;88171;-65
2022/11/04 03:35:44;;;;;;;10.70;9.60;;;22.10;99.90;;;;;;6211820;28;90228;-65
2022/11/04 03:38:47;;;;;;;11.05;9.80;;;22.10;99.90;;;;;;6219355;28;89375;-65
2022/11/04 03:41:53;;;;;;;10.32;9.25;;;22.10;99.90;;;;;;6221137;28;89252;-65
2022/11/04 03:44:56;;;;;;;10.30;9.30;;;22.10;99.90;;;;;;6209075;28;89693;-65
2022/11/04 03:48:00;;;;;;;10.13;9.13;;;22.10;99.90;;;;;;6218241;28;89837;-65
2022/11/04 03:51:03;;;;;;;10.43;9.32;;;22.10;99.90;;;;;;6224173;28;89186;-65
2022/11/04 03:54:06;;;;;;;9.68;8.77;;;22.10;99.90;;;;;;6231939;28;89861;-65
2022/11/04 03:57:24;;;;;;;9.75;8.85;;;22.10;99.90;;;;;;6232528;28;88753;-65
2022/11/04 04:00:33;;;;;;;9.52;8.63;;;22.00;99.90;;;;;;6229974;28;89232;-65
2022/11/04 04:03:42;;;;;;;9.90;8.90;;;22.10;99.90;;;;;;6232405;28;89143;-65
2022/11/04 04:06:46;;;;;;;9.23;8.32;;;22.00;99.90;;;;;;6232316;28;88984;-65
2022/11/04 04:09:54;;;;;;;10.38;8.90;;;22.10;99.90;;;;;;6229308;28;89220;-65
2022/11/04 04:13:00;;;;;;;10.35;8.52;;;22.00;99.90;;;;;;6222207;28;89397;-65
2022/11/04 04:16:08;;;;;;;10.55;9.05;;;22.00;99.90;;;;;;6218844;28;88175;-65
2022/11/04 04:19:15;;;;;;;9.25;8.35;;;22.00;99.90;;;;;;6229994;28;89098;-65
2022/11/04 04:22:21;;;;;;;8.80;8.00;;;22.00;99.90;;;;;;6223091;28;89192;-65
2022/11/04 04:28:46;;;;;;;8.75;7.95;;;22.00;99.90;;;;;;6232469;28;86551;-65
2022/11/04 04:31:49;;;;;;;8.48;7.65;;;22.00;99.90;;;;;;6228494;28;89284;-65
2022/11/04 04:35:40;;;;;;;8.55;7.70;;;22.00;99.90;;;;;;6221999;28;89172;-65
2022/11/04 04:45:04;;;;;;;8.40;7.53;;;22.00;99.90;;;;;;6232341;28;87323;-65
2022/11/04 04:48:08;;;;;;;7.78;6.97;;;22.00;99.90;;;;;;6227483;28;87599;-65
2022/11/04 04:51:12;;;;;;;7.88;7.07;;;22.10;99.90;;;;;;6219374;28;89348;-65
2022/11/04 04:54:14;;;;;;;7.93;7.13;;;22.10;99.90;;;;;;6219999;28;89156;-65
2022/11/04 04:57:16;;;;;;;8.35;7.55;;;22.10;99.90;;;;;;6232001;28;89110;-65
2022/11/04 05:00:20;;;;;;;7.95;7.15;;;22.10;99.90;;;;;;6231447;28;87429;-65
2022/11/04 05:03:24;;;;;;;7.82;7.13;;;22.10;99.90;;;;;;6229207;28;89244;-65
2022/11/04 05:06:27;;;;;;;8.00;7.20;;;22.10;99.90;;;;;;6229483;28;87965;-65
2022/11/04 05:09:29;;;;;;;7.68;6.80;;;22.10;99.90;;;;;;6219164;28;90173;-65
2022/11/04 05:15:47;;;;;;;6.95;6.25;;;22.10;99.90;;;;;;6215274;28;88563;-65
2022/11/04 05:18:51;;;;;;;6.78;6.07;;;22.10;99.90;;;;;;6225854;28;88311;-65
2022/11/04 05:21:55;;;;;;;6.85;6.25;;;22.10;99.90;;;;;;6231537;28;89278;-66
2022/11/04 05:24:57;;;;;;;7.07;6.38;;;22.10;99.90;;;;;;6230993;28;89098;-65
2022/11/04 05:28:00;;;;;;;7.05;6.35;;;22.10;99.90;;;;;;6224226;28;89401;-65
2022/11/04 05:31:04;;;;;;;7.93;6.68;;;22.10;99.90;;;;;;6225449;28;88414;-65
2022/11/04 05:34:06;;;;;;;7.70;6.63;;;22.10;99.90;;;;;;6231035;28;89351;-66
2022/11/04 05:37:09;;;;;;;7.00;6.30;;;22.20;99.90;;;;;;6219660;28;89129;-65
2022/11/04 05:40:12;;;;;;;6.75;6.05;;;22.10;99.90;;;;;;6217898;28;90183;-65
2022/11/04 05:43:14;;;;;;;6.50;5.90;;;22.20;99.90;;;;;;6229987;28;89115;-65
2022/11/04 05:46:16;;;;;;;6.85;6.15;;;22.20;99.90;;;;;;6223308;28;88012;-65
2022/11/04 05:49:18;;;;;;;6.07;5.57;;;22.20;99.90;;;;;;6217724;28;88930;-65
2022/11/04 05:52:22;;;;;;;6.60;6.00;;;22.20;99.90;;;;;;6207508;28;89186;-65
2022/11/04 05:55:24;;;;;;;6.60;6.00;;;22.20;99.90;;;;;;6226649;28;89519;-66
2022/11/04 05:58:26;;;;;;;6.50;5.80;;;22.20;99.90;;;;;;6230537;28;89313;-65
2022/11/04 06:01:32;;;;;;;6.40;5.80;;;22.20;99.90;;;;;;6222075;28;88545;-65
2022/11/04 06:04:34;;;;;;;6.30;5.70;;;22.20;99.90;;;;;;6224025;28;88110;-65
2022/11/04 06:07:38;;;;;;;6.22;5.63;;;22.20;99.90;;;;;;6230107;28;89337;-65
2022/11/04 06:10:40;;;;;;;6.93;6.22;;;22.20;99.90;;;;;;6229946;28;90170;-65
2022/11/04 06:13:42;;;;;;;6.15;5.55;;;22.20;99.90;;;;;;6215623;28;89023;-65
2022/11/04 06:16:44;;;;;;;5.90;5.40;;;22.20;99.90;;;;;;6206232;28;89269;-65
2022/11/04 06:19:46;;;;;;;6.20;5.60;;;22.20;99.90;;;;;;6206709;28;89194;-65
2022/11/04 06:22:50;;;;;;;6.25;5.65;;;22.20;99.90;;;;;;6217470;28;89030;-65
2022/11/04 06:25:53;;;;;;;6.00;5.40;;;22.20;99.90;;;;;;6221467;28;88179;-65
2022/11/04 06:28:55;;;;;;;6.10;5.50;;;22.20;99.90;;;;;;6234706;28;89148;-65
2022/11/04 06:31:57;;;;;;;6.18;5.57;;;22.20;99.90;;;;;;6234444;28;88318;-65
2022/11/04 06:34:59;;;;;;;5.90;5.35;;;22.20;99.90;;;;;;6234335;28;89413;-65
2022/11/04 06:38:03;;;;;;;6.32;5.72;;;22.20;99.90;;;;;;6220770;28;89086;-65
2022/11/04 06:41:06;;;;;;;5.53;5.03;;;22.20;99.90;;;;;;6233678;28;90563;-65
2022/11/04 06:44:08;;;;;;;5.97;5.38;;;22.20;99.90;;;;;;6223907;28;89940;-65
2022/11/04 06:47:10;;;;;;;6.40;5.63;;;22.20;99.90;;;;;;6223161;28;89253;-65
2022/11/04 06:50:13;;;;;;;5.85;5.28;;;22.20;99.90;;;;;;6219288;28;88984;-65
2022/11/04 06:53:17;;;;;;;6.18;5.47;;;22.20;99.90;;;;;;6219646;28;87968;-65
2022/11/04 06:56:19;;;;;;;5.80;5.25;;;22.20;99.90;;;;;;6228133;28;89210;-65
2022/11/04 06:59:21;;;;;;;6.03;5.43;;;22.20;99.90;;;;;;6226691;28;88012;-65
2022/11/04 07:02:23;;;;;;;5.43;4.93;;;22.20;99.90;;;;;;6221137;28;88800;-65
2022/11/04 07:05:25;;;;;;;5.90;5.40;;;22.20;99.90;;;;;;6234947;28;89319;-65
2022/11/04 07:08:28;;;;;;;5.63;5.13;;;22.20;99.90;;;;;;6233889;28;88018;-65
2022/11/04 07:11:32;;;;;;;6.07;5.47;;;22.20;99.90;;;;;;6232552;28;90427;-65
2022/11/04 07:14:34;;;;;;;5.60;5.10;;;22.20;99.90;;;;;;6217646;28;89633;-65
2022/11/04 07:17:36;;;;;;;5.40;4.90;;;22.20;99.90;;;;;;6233072;28;89219;-65
2022/11/04 07:20:39;;;;;;;5.38;4.88;;;22.20;99.90;;;;;;6232026;28;89511;-65
2022/11/04 07:23:42;;;;;;;6.32;5.35;;;22.20;99.90;;;;;;6233670;28;89325;-65
2022/11/04 07:26:44;;;;;;;5.45;4.85;;;22.20;99.90;;;;;;6233194;28;89357;-65
2022/11/04 07:29:46;;;;;;;5.30;4.80;;;22.20;99.90;;;;;;6233963;28;89537;-65
2022/11/04 07:32:48;;;;;;;5.50;5.00;;;22.20;99.90;;;;;;6221523;28;88472;-65
2022/11/04 07:35:51;;;;;;;5.30;4.80;;;22.20;99.90;;;;;;6218068;28;89194;-65
2022/11/04 07:38:55;;;;;;;5.18;4.68;;;22.20;99.90;;;;;;6231980;28;88944;-65
2022/11/04 07:41:57;;;;;;;5.55;5.00;;;22.20;99.90;;;;;;6226074;28;90113;-65
2022/11/04 07:44:59;;;;;;;5.20;4.70;;;22.30;99.90;;;;;;6214958;28;89111;-65
2022/11/04 07:48:01;;;;;;;4.97;4.47;;;22.20;99.90;;;;;;6229742;28;89122;-65
2022/11/04 07:51:05;;;;;;;5.70;4.80;;;22.30;99.90;;;;;;6224271;28;89290;-65
2022/11/04 07:54:08;;;;;;;5.20;4.65;;;22.30;99.90;;;;;;6227968;28;89219;-65
2022/11/04 07:57:10;;;;;;;5.10;4.60;;;22.30;99.90;;;;;;6207712;28;89203;-65
2022/11/04 08:00:15;;;;;;;4.68;4.28;;;22.30;99.90;;;;;;6218139;28;89343;-65
2022/11/04 08:03:17;;;;;;;4.90;4.40;;;22.30;99.90;;;;;;6212845;28;88515;-65
2022/11/04 08:06:21;;;;;;;4.50;4.10;;;22.30;99.90;;;;;;6221475;28;89600;-65
2022/11/04 08:09:24;;;;;;;4.93;4.43;;;22.30;99.90;;;;;;6223610;28;89188;-65
2022/11/04 08:12:26;;;;;;;5.05;4.55;;;22.30;99.90;;;;;;6231541;28;90182;-65
2022/11/04 08:15:29;;;;;;;4.72;4.22;;;22.30;99.90;;;;;;6230916;28;87975;-65
2022/11/04 08:18:31;;;;;;;4.90;4.40;;;22.30;99.90;;;;;;6220521;28;89117;-65
2022/11/04 08:21:34;;;;;;;4.50;4.10;;;22.30;99.90;;;;;;6233078;28;86980;-65
2022/11/04 08:24:39;;;;;;;4.88;4.38;;;22.30;99.90;;;;;;6224673;28;89404;-65
2022/11/04 08:27:41;;;;;;;4.40;4.00;;;22.30;99.90;;;;;;6226612;28;88772;-65
2022/11/04 08:30:52;;;;;;;4.20;3.80;;;22.30;99.90;;;;;;6231785;28;88120;-65
2022/11/04 08:33:55;;;;;;;4.25;3.85;;;22.40;99.90;;;;;;6232471;28;88721;-65
2022/11/04 08:36:59;;;;;;;4.18;3.78;;;22.30;99.90;;;;;;6216498;28;89044;-65
2022/11/04 08:40:02;;;;;;;4.70;4.20;;;22.30;99.90;;;;;;6222140;28;89137;-65
2022/11/04 08:43:04;;;;;;;4.50;4.10;;;22.30;99.90;;;;;;6229632;28;90420;-65
2022/11/04 08:46:08;;;;;;;4.60;3.95;;;22.30;99.90;;;;;;6232127;28;89082;-65
2022/11/04 08:49:11;;;;;;;4.28;3.88;;;22.40;99.90;;;;;;6217820;28;89055;-65
2022/11/04 08:52:13;;;;;;;4.45;4.03;;;22.30;99.90;;;;;;6230362;28;88014;-65
2022/11/04 08:55:16;;;;;;;4.32;3.92;;;22.30;99.90;;;;;;6228990;28;89280;-65
2022/11/04 08:58:19;;;;;;;4.40;4.00;;;22.40;99.90;;;;;;6208414;28;87956;-65
2022/11/04 09:01:22;;;;;;;4.50;3.65;;;22.30;99.90;;;;;;6227412;28;89518;-65
2022/11/04 09:04:24;;;;;;;4.00;3.60;;;22.40;99.90;;;;;;6229134;28;88660;-65
2022/11/04 09:07:26;;;;;;;4.07;3.65;;;22.30;99.90;;;;;;6208852;28;89161;-66
2022/11/04 09:10:29;;;;;;;3.78;3.38;;;22.30;99.90;;;;;;6218002;28;89463;-66
2022/11/04 09:13:31;;;;;;;3.75;3.45;;;22.40;99.90;;;;;;6230341;28;90210;-65
2022/11/04 09:16:35;;;;;;;3.75;3.45;;;22.40;99.90;;;;;;6231078;28;89390;-65
2022/11/04 09:19:37;;;;;;;4.47;4.03;;;22.40;99.90;;;;;;6222399;28;88647;-66
2022/11/04 09:22:39;;;;;;;4.45;3.60;;;22.40;99.90;;;;;;6211275;28;89224;-65
2022/11/04 09:25:43;;;;;;;3.95;3.55;;;22.30;99.90;;;;;;6218546;28;89293;-65
2022/11/04 09:28:45;;;;;;;3.85;3.45;;;22.40;99.90;;;;;;6228918;28;88043;-64
2022/11/04 09:31:48;;;;;;;3.92;3.53;;;22.40;99.90;;;;;;6219892;28;89483;-66
2022/11/04 09:34:50;;;;;;;4.10;3.70;;;22.40;99.90;;;;;;6231622;28;88505;-65
2022/11/04 09:37:53;;;;;;;3.60;3.30;;;22.40;99.90;;;;;;6230789;28;89533;-65
2022/11/04 09:40:58;;;;;;;3.53;3.22;;;22.40;99.90;;;;;;6214639;28;89193;-65
2022/11/04 09:44:12;;;;;;;3.50;3.20;;;22.30;99.90;;;;;;6216877;28;90251;-65
2022/11/04 09:47:15;;;;;;;3.50;3.20;;;22.40;99.90;;;;;;6210289;28;89150;-65
2022/11/04 09:50:26;;;;;;;3.42;3.13;;;22.40;99.90;;;;;;6225447;28;89436;-65
2022/11/04 09:53:33;;;;;;;3.63;3.33;;;22.40;99.90;;;;;;6217214;28;89221;-65
2022/11/04 09:56:42;;;;;;;3.50;3.20;;;22.30;99.90;;;;;;6229077;28;89139;-65
2022/11/04 09:59:46;;;;;;;3.53;3.20;;;22.30;99.90;;;;;;6230100;28;89225;-65
2022/11/04 10:02:58;;;;;;;3.60;3.30;;;22.40;99.90;;;;;;6230124;28;88057;-65
2022/11/04 10:06:18;;;;;;;3.38;3.08;;;22.40;99.90;;;;;;6230946;28;87196;-65
2022/11/04 10:09:51;;;;;;;3.70;3.30;;;22.30;99.90;;;;;;6228827;28;89164;-65
2022/11/04 10:13:04;;;;;;;3.30;3.00;;;22.40;99.90;;;;;;6183371;28;89423;-65
2022/11/04 10:16:23;;;;;;;3.47;3.10;;;22.40;99.90;;;;;;6224625;28;90199;-65
2022/11/04 10:19:44;;;;;;;3.40;3.10;;;22.30;99.90;;;;;;6222945;28;89242;-66
2022/11/04 10:22:57;;;;;;;3.30;3.00;;;22.40;99.90;;;;;;6227324;28;89163;-65
2022/11/04 10:26:05;;;;;;;3.30;2.95;;;22.40;99.90;;;;;;6221558;28;89174;-65
2022/11/04 10:29:14;;;;;;;3.20;2.90;;;22.30;99.90;;;;;;6218224;28;88926;-65
2022/11/04 10:32:21;;;;;;;3.28;2.97;;;22.40;99.90;;;;;;6207503;28;89084;-65
2022/11/04 10:35:31;;;;;;;3.33;3.00;;;22.40;99.90;;;;;;6225371;28;89613;-65
2022/11/04 10:38:38;;;;;;;3.33;3.03;;;22.40;99.90;;;;;;6230288;28;87311;-65
2022/11/04 10:41:40;;;;;;;3.10;2.80;;;22.30;99.90;;;;;;6221237;28;89315;-65
2022/11/04 10:44:46;;;;;;;3.45;3.05;;;22.40;99.90;;;;;;6207441;28;89191;-65
2022/11/04 10:47:56;;;;;;;3.85;3.45;;;22.40;99.90;;;;;;6208217;28;88954;-65
2022/11/04 10:50:59;;;;;;;3.58;3.22;;;22.30;99.90;;;;;;6217295;28;89184;-66
2022/11/04 10:54:02;;;;;;;3.17;2.88;;;22.40;99.90;;;;;;6217102;28;87956;-65
2022/11/04 10:57:04;;;;;;;3.22;2.92;;;22.40;99.90;;;;;;6217802;28;89239;-65
2022/11/04 11:00:09;;;;;;;3.00;2.70;;;22.40;99.90;;;;;;6212014;28;89244;-65
2022/11/04 11:03:38;;;;;;;2.90;2.70;;;22.40;99.90;;;;;;6222922;28;89139;-65
2022/11/04 11:06:40;;;;;;;2.92;2.63;;;22.40;99.90;;;;;;6173992;28;89363;-65
2022/11/04 11:09:52;;;;;;;2.72;2.50;;;22.30;99.90;;;;;;6229773;28;88269;-65
2022/11/04 11:12:56;;;;;;;3.28;2.65;;;22.40;99.90;;;;;;6215177;28;89150;-65
2022/11/04 11:16:10;;;;;;;2.85;2.65;;;22.40;99.90;;;;;;6227421;28;89178;-65
2022/11/04 11:19:17;;;;;;;2.88;2.55;;;22.40;99.90;;;;;;6214449;28;90118;-65
2022/11/04 11:22:31;;;;;;;3.88;2.90;;;22.40;99.90;;;;;;6221422;28;89182;-65
2022/11/04 11:25:34;;;;;;;4.45;3.03;;;22.40;99.90;;;;;;6209368;28;89311;-65
2022/11/04 11:28:39;;;;;;;3.40;2.72;;;22.40;99.90;;;;;;6222328;28;89463;-65
2022/11/04 11:31:43;;;;;;;3.13;2.60;;;22.40;99.90;;;;;;6209354;28;89120;-65
2022/11/04 11:34:47;;;;;;;2.70;2.50;;;22.40;99.90;;;;;;6210073;28;89249;-65
2022/11/04 11:37:49;;;;;;;2.60;2.40;;;22.40;99.90;;;;;;6232576;28;88009;-65
2022/11/04 11:40:54;;;;;;;2.60;2.40;;;22.40;99.90;;;;;;6218597;28;88522;-65
2022/11/04 11:43:59;;;;;;;2.67;2.38;;;22.40;99.90;;;;;;6220430;28;89139;-65
2022/11/04 11:47:04;;;;;;;2.75;2.50;;;22.40;99.90;;;;;;6226450;28;89283;-65
2022/11/04 11:50:14;;;;;;;3.05;2.63;;;22.40;99.90;;;;;;6220774;28;89985;-65
2022/11/04 11:53:20;;;;;;;2.60;2.40;;;22.40;99.90;;;;;;6213887;28;89144;-65
2022/11/04 11:56:27;;;;;;;2.75;2.47;;;22.40;99.90;;;;;;6225195;28;88375;-65
2022/11/04 11:59:42;;;;;;;2.80;2.50;;;22.40;99.90;;;;;;6212841;28;89355;-65
2022/11/04 12:02:53;;;;;;;2.50;2.30;;;22.40;99.90;;;;;;6226506;28;89101;-65
2022/11/04 12:06:13;;;;;;;2.60;2.40;;;22.40;99.90;;;;;;6224330;28;89414;-65
2022/11/04 12:09:24;;;;;;;2.60;2.40;;;22.40;99.90;;;;;;6229606;28;88355;-65
2022/11/04 12:12:52;;;;;;;2.65;2.45;;;22.40;99.90;;;;;;6229639;28;88450;-65
2022/11/04 12:16:15;;;;;;;2.50;2.30;;;22.40;99.90;;;;;;6212781;28;89084;-65
2022/11/04 12:19:34;;;;;;;2.55;2.35;;;22.40;99.90;;;;;;6232263;28;89094;-65
2022/11/04 12:22:40;;;;;;;2.50;2.20;;;22.40;99.90;;;;;;6217817;28;89961;-65
2022/11/04 12:25:48;;;;;;;2.50;2.30;;;22.40;99.90;;;;;;6219287;28;89237;-65
2022/11/04 12:29:16;;;;;;;2.80;2.40;;;22.40;99.90;;;;;;6217513;28;89113;-65
2022/11/04 12:32:28;;;;;;;2.47;2.28;;;22.40;99.90;;;;;;6227505;28;89447;-65
2022/11/04 12:35:48;;;;;;;2.60;2.40;;;22.40;99.90;;;;;;6224036;28;89090;-65
2022/11/04 12:39:01;;;;;;;2.50;2.30;;;22.40;99.90;;;;;;6231904;28;89132;-65
2022/11/04 12:42:13;;;;;;;2.20;2.00;;;22.40;99.90;;;;;;6228495;28;89082;-65
2022/11/04 12:45:34;;;;;;;2.55;2.30;;;22.40;99.90;;;;;;6231756;28;88462;-65
2022/11/04 12:49:02;;;;;;;2.30;2.10;;;22.40;99.90;;;;;;6217521;28;89468;-65
2022/11/04 12:52:20;;;;;;;2.70;2.50;;;22.40;99.90;;;;;;6231153;28;88362;-65
2022/11/04 12:55:35;;;;;;;2.88;2.38;;;22.40;99.90;;;;;;6229767;28;90420;-65
2022/11/04 12:58:55;;;;;;;2.17;1.98;;;22.40;99.90;;;;;;6218655;28;89116;-65
2022/11/04 13:02:01;;;;;;;2.40;2.20;;;22.40;99.90;;;;;;6230732;28;88108;-65
2022/11/04 13:05:15;;;;;;;2.40;2.08;;;22.40;99.90;;;;;;6222479;28;89441;-65
2022/11/04 13:08:24;;;;;;;2.45;2.00;;;22.40;99.90;;;;;;6229311;28;89213;-65
2022/11/04 13:11:30;;;;;;;2.20;2.00;;;22.40;99.90;;;;;;6209649;28;89203;-65
2022/11/04 13:14:44;;;;;;;2.20;2.00;;;22.40;99.90;;;;;;6227016;28;88022;-65
2022/11/04 13:17:47;;;;;;;2.38;2.17;;;22.40;99.90;;;;;;6224260;28;88441;-65
2022/11/04 13:20:57;;;;;;;2.35;2.15;;;22.40;99.90;;;;;;6211377;28;89259;-65
2022/11/04 13:24:03;;;;;;;2.88;2.30;;;22.40;99.90;;;;;;6218438;28;88933;-65
2022/11/04 13:27:19;;;;;;;2.88;2.30;;;22.40;99.90;;;;;;6230031;28;90045;-65
2022/11/04 13:30:27;;;;;;;2.53;2.10;;;22.50;99.90;;;;;;6217851;28;89580;-65
2022/11/04 13:33:38;;;;;;;2.47;2.17;;;22.40;99.90;;;;;;6218777;28;89161;-65
2022/11/04 13:36:45;;;;;;;2.63;2.10;;;22.40;99.90;;;;;;6229867;28;88119;-65
2022/11/04 13:39:52;;;;;;;2.45;2.03;;;22.50;99.90;;;;;;6219543;28;89104;-65
2022/11/04 13:46:35;;;;;;;2.17;1.98;;;22.40;99.90;;;;;;6221419;28;88537;-64
2022/11/04 13:49:37;;;;;;;3.03;2.30;;;22.40;99.90;;;;;;6216843;28;88462;-65
2022/11/04 13:52:49;;;;;;;2.35;2.08;;;22.40;99.90;;;;;;6220730;28;88813;-65
2022/11/04 13:55:52;;;;;;;2.08;1.88;;;22.40;99.90;;;;;;6229864;28;89256;-65
2022/11/04 13:58:57;;;;;;;2.20;1.85;;;22.40;99.90;;;;;;6217474;28;89861;-65
2022/11/04 14:02:39;;;;;;;2.20;2.00;;;22.40;99.90;;;;;;6219946;28;89156;-65
2022/11/04 14:06:05;;;;;;;3.03;2.20;;;22.40;99.90;;;;;;6215303;28;89087;-65
2022/11/04 14:09:52;;;;;;;2.53;1.90;;;22.40;99.90;;;;;;6225582;28;88429;-65
2022/11/04 14:13:36;;;;;;;2.28;1.80;;;22.40;99.90;;;;;;6229999;28;89219;-64
2022/11/04 14:16:41;;;;;;;1.63;1.42;;;22.40;99.90;;;;;;6219254;28;89325;-65
2022/11/04 14:19:48;;;;;;;1.67;1.40;;;22.40;96.60;;;;;;6219634;28;89096;-65
2022/11/04 14:22:53;;;;;;;1.95;1.20;;;22.30;94.40;;;;;;6224701;28;88436;-65
2022/11/04 14:26:00;;;;;;;1.55;1.20;;;22.30;93.10;;;;;;6230487;28;89206;-65
2022/11/04 14:29:15;;;;;;;1.45;1.20;;;22.30;92.40;;;;;;6214830;28;89074;-63
2022/11/04 14:32:25;;;;;;;1.65;1.10;;;22.30;91.30;;;;;;6228465;28;88590;-64
2022/11/04 14:35:29;;;;;;;2.08;1.20;;;22.30;91.20;;;;;;6216742;28;89339;-64
2022/11/04 14:38:33;;;;;;;1.73;1.27;;;22.30;91.30;;;;;;6215544;28;88534;-64
2022/11/04 14:42:07;;;;;;;6.50;1.83;;;22.30;90.90;;;;;;6230948;28;89101;-64
2022/11/04 14:45:17;;;;;;;4.55;1.38;;;22.30;90.10;;;;;;6150547;28;89452;-64
2022/11/04 14:48:21;;;;;;;4.32;1.48;;;22.20;90.00;;;;;;6221225;28;89314;-64
2022/11/04 14:51:26;;;;;;;3.42;1.40;;;22.30;90.40;;;;;;6225270;28;89087;-64
2022/11/04 14:54:32;;;;;;;3.38;1.38;;;22.30;91.20;;;;;;6226319;28;88434;-64
2022/11/04 14:57:40;;;;;;;2.30;1.40;;;22.20;92.00;;;;;;6220118;28;89096;-65
2022/11/04 15:00:53;;;;;;;2.47;1.20;;;22.30;92.60;;;;;;6222830;28;89186;-64
2022/11/04 15:03:57;;;;;;;2.15;1.63;;;22.30;93.00;;;;;;6227759;28;90111;-65
2022/11/04 15:07:00;;;;;;;3.22;1.20;;;22.30;93.20;;;;;;6233005;28;89177;-65
2022/11/04 15:10:17;;;;;;;2.20;1.30;;;22.40;93.60;;;;;;6222735;28;88445;-64
2022/11/04 15:13:20;;;;;;;1.50;1.20;;;22.30;93.80;;;;;;6222155;28;89522;-64
2022/11/04 15:16:26;;;;;;;1.83;1.30;;;22.40;94.00;;;;;;6233326;28;89389;-64
2022/11/04 15:19:33;;;;;;;2.25;1.20;;;22.30;94.20;;;;;;6226104;28;88900;-65
2022/11/04 15:22:36;;;;;;;2.35;1.45;;;22.30;94.40;;;;;;6228814;28;90395;-64
2022/11/04 15:25:45;;;;;;;3.92;1.50;;;22.30;94.70;;;;;;6227475;28;88575;-65
2022/11/04 15:28:49;;;;;;;5.13;1.60;;;22.40;94.90;;;;;;6218152;28;89598;-64
2022/11/04 15:31:55;;;;;;;2.92;1.35;;;22.30;95.10;;;;;;6211836;28;89182;-64
2022/11/04 15:34:58;;;;;;;2.80;1.20;;;22.40;95.30;;;;;;6229821;28;90424;-64
2022/11/04 15:38:02;;;;;;;2.63;1.30;;;22.40;95.50;;;;;;6233573;28;89517;-64
2022/11/04 15:44:28;;;;;;;4.05;1.50;;;22.40;96.00;;;;;;6226923;28;88635;-66
2022/11/04 15:47:32;;;;;;;2.13;1.17;;;22.40;96.10;;;;;;6228356;28;89159;-66
2022/11/04 15:50:34;;;;;;;4.28;1.60;;;22.40;96.10;;;;;;6226688;28;89408;-66
2022/11/04 15:53:47;;;;;;;2.35;1.20;;;22.50;96.20;;;;;;6222706;28;89547;-66
2022/11/04 15:56:53;;;;;;;3.03;1.27;;;22.40;96.20;;;;;;6230434;28;88424;-66
2022/11/04 15:59:58;;;;;;;2.92;1.30;;;22.40;96.40;;;;;;6231662;28;88074;-66
2022/11/04 16:03:02;;;;;;;2.03;1.20;;;22.40;96.50;;;;;;6227250;28;88060;-66
2022/11/04 16:06:07;;;;;;;3.10;1.40;;;22.50;96.60;;;;;;6225278;28;89981;-66
2022/11/04 16:09:21;;;;;;;2.95;1.40;;;22.50;96.70;;;;;;6229524;28;88567;-66
2022/11/04 16:12:29;;;;;;;3.63;1.85;;;22.50;96.80;;;;;;6216363;28;89252;-66
2022/11/04 16:15:34;;;;;;;4.10;1.30;;;22.50;96.90;;;;;;6209887;28;87978;-66
2022/11/04 16:18:41;;;;;;;2.25;1.42;;;22.40;96.90;;;;;;6233049;28;89086;-66
2022/11/04 16:21:44;;;;;;;2.53;1.20;;;22.40;96.90;;;;;;6218161;28;88085;-66
2022/11/04 16:24:50;;;;;;;2.33;1.30;;;22.50;97.10;;;;;;6208906;28;89196;-65
2022/11/04 16:27:52;;;;;;;2.97;1.30;;;22.50;97.10;;;;;;6227056;28;88209;-66
2022/11/04 16:30:58;;;;;;;3.30;1.58;;;22.50;97.20;;;;;;6231478;28;89246;-66
2022/11/04 16:34:02;;;;;;;1.60;1.27;;;22.50;97.30;;;;;;6225973;28;89234;-66
2022/11/04 16:37:04;;;;;;;4.25;1.40;;;22.50;97.30;;;;;;6226165;28;90674;-65
2022/11/04 16:40:08;;;;;;;2.70;1.25;;;22.50;97.40;;;;;;6228662;28;89300;-65